Time;durP1;ratioP1;P1;durP2;ratioP2;P2;SDS_P1;SDS_P2;PMS_P1;PMS_P2;Temp;Humidity;BMP_temperature;BMP_pressure;BME280_temperature;BME280_humidity;BME280_pressure;Samples;Min_cycle;Max_cycle;Signal;HPM_P1;HPM_P2
2023/02/19 00:00:31;;;;;;;3.37;1.80;;;10.50;99.90;;;;;;5012582;28;20033;-79
2023/02/19 00:02:56;;;;;;;4.17;2.23;;;10.50;99.90;;;;;;5016376;28;20037;-80
2023/02/19 00:05:23;;;;;;;2.90;1.70;;;10.50;99.90;;;;;;5013211;28;20018;-80
2023/02/19 00:07:48;;;;;;;3.20;1.73;;;10.40;99.90;;;;;;5013005;28;20058;-80
2023/02/19 00:10:14;;;;;;;4.93;2.37;;;10.50;99.90;;;;;;5002842;28;20046;-79
2023/02/19 00:12:39;;;;;;;2.67;1.83;;;10.40;99.90;;;;;;4998492;28;20034;-80
2023/02/19 00:15:05;;;;;;;3.83;1.60;;;10.50;99.90;;;;;;5014233;28;20078;-80
2023/02/19 00:17:31;;;;;;;2.17;1.70;;;10.50;99.90;;;;;;5005506;28;20093;-80
2023/02/19 00:19:56;;;;;;;4.30;1.90;;;10.50;99.90;;;;;;5004465;28;20077;-80
2023/02/19 00:22:22;;;;;;;4.07;1.93;;;10.50;99.90;;;;;;5000839;28;20028;-80
2023/02/19 00:24:48;;;;;;;2.70;1.80;;;10.50;99.90;;;;;;5003460;28;20096;-79
2023/02/19 00:27:14;;;;;;;3.70;2.17;;;10.40;99.90;;;;;;5013181;28;20076;-80
2023/02/19 00:29:39;;;;;;;3.87;2.30;;;10.40;99.90;;;;;;5011427;28;20505;-80
2023/02/19 00:32:05;;;;;;;2.50;1.60;;;10.40;99.90;;;;;;5001731;28;20018;-80
2023/02/19 00:34:30;;;;;;;4.87;2.30;;;10.40;99.90;;;;;;5015305;28;20045;-80
2023/02/19 00:36:56;;;;;;;2.83;1.60;;;10.40;99.90;;;;;;5003690;28;20439;-79
2023/02/19 00:39:22;;;;;;;2.93;1.90;;;10.40;99.90;;;;;;5008406;28;20033;-80
2023/02/19 00:41:47;;;;;;;3.30;1.80;;;10.40;99.90;;;;;;4999961;28;20053;-79
2023/02/19 00:44:13;;;;;;;2.30;1.70;;;10.40;99.90;;;;;;5001963;28;20030;-79
2023/02/19 00:46:44;;;;;;;3.27;1.70;;;10.40;99.90;;;;;;5011424;28;20030;-80
2023/02/19 00:49:28;;;;;;;4.60;1.90;;;10.40;99.90;;;;;;5010904;28;20105;-80
2023/02/19 00:51:54;;;;;;;2.20;1.70;;;10.40;99.90;;;;;;5003944;28;20113;-80
2023/02/19 00:54:21;;;;;;;2.50;1.70;;;10.50;99.90;;;;;;5002651;28;20470;-80
2023/02/19 00:56:47;;;;;;;3.23;1.90;;;10.40;99.90;;;;;;5001223;28;20041;-80
2023/02/19 00:59:13;;;;;;;2.73;1.80;;;10.40;99.90;;;;;;5010627;28;20026;-80
2023/02/19 01:01:39;;;;;;;3.00;1.90;;;10.40;99.90;;;;;;4998622;28;20037;-80
2023/02/19 01:04:04;;;;;;;2.53;1.70;;;10.40;99.90;;;;;;5005116;28;20034;-80
2023/02/19 01:06:31;;;;;;;3.83;1.70;;;10.40;99.90;;;;;;5007238;28;20026;-80
2023/02/19 01:08:57;;;;;;;3.43;2.00;;;10.40;99.90;;;;;;5000793;28;20021;-80
2023/02/19 01:11:24;;;;;;;3.17;1.67;;;10.50;99.90;;;;;;5002590;28;20028;-80
2023/02/19 01:13:49;;;;;;;4.37;2.10;;;10.40;99.90;;;;;;5005154;28;20026;-79
2023/02/19 01:16:19;;;;;;;3.53;1.70;;;10.60;99.90;;;;;;5002790;28;20028;-80
2023/02/19 01:18:46;;;;;;;2.73;1.90;;;10.60;99.90;;;;;;5009147;28;20030;-80
2023/02/19 01:21:14;;;;;;;2.73;1.77;;;10.60;99.90;;;;;;5010327;28;20087;-80
2023/02/19 01:23:40;;;;;;;3.13;1.80;;;10.50;99.90;;;;;;5011901;28;20471;-80
2023/02/19 01:26:07;;;;;;;3.20;1.73;;;10.50;99.90;;;;;;4999647;28;20032;-80
2023/02/19 01:28:34;;;;;;;2.20;1.70;;;10.40;99.90;;;;;;5010161;28;20046;-79
2023/02/19 01:31:04;;;;;;;2.20;1.47;;;10.50;99.90;;;;;;5014891;28;20332;-80
2023/02/19 01:33:30;;;;;;;2.53;1.57;;;10.50;99.90;;;;;;5004589;28;20388;-80
2023/02/19 01:35:55;;;;;;;3.60;1.87;;;10.50;99.90;;;;;;4998001;28;20022;-80
2023/02/19 01:38:21;;;;;;;2.20;1.67;;;10.50;99.90;;;;;;4997378;28;20034;-80
2023/02/19 01:40:58;;;;;;;3.23;1.70;;;10.50;99.90;;;;;;5005661;28;20536;-80
2023/02/19 01:43:24;;;;;;;4.13;2.37;;;10.50;99.90;;;;;;5003740;28;20026;-79
2023/02/19 01:45:49;;;;;;;2.60;1.70;;;10.50;99.90;;;;;;4995299;28;20081;-80
2023/02/19 01:48:15;;;;;;;2.33;1.70;;;10.40;99.90;;;;;;5008206;28;20058;-77
2023/02/19 01:50:46;;;;;;;2.80;1.73;;;10.40;99.90;;;;;;5008040;28;20022;-77
2023/02/19 01:53:15;;;;;;;3.03;1.90;;;10.40;99.90;;;;;;5005234;28;20104;-77
2023/02/19 01:55:43;;;;;;;3.53;2.10;;;10.40;99.90;;;;;;5004616;28;20037;-77
2023/02/19 01:58:09;;;;;;;2.83;2.10;;;10.40;99.90;;;;;;5002309;28;20109;-77
2023/02/19 02:00:35;;;;;;;2.83;1.80;;;10.50;99.90;;;;;;5008137;28;20125;-77
2023/02/19 02:03:02;;;;;;;2.40;1.60;;;10.40;99.90;;;;;;5007948;28;20466;-77
2023/02/19 02:05:43;;;;;;;3.13;1.80;;;10.40;99.90;;;;;;5003763;28;20052;-77
2023/02/19 02:10:53;;;;;;;2.53;1.57;;;10.40;99.90;;;;;;5002166;28;20069;-77
2023/02/19 02:13:19;;;;;;;2.57;1.80;;;10.40;99.90;;;;;;4999754;28;20387;-77
2023/02/19 02:16:26;;;;;;;3.73;1.90;;;10.40;99.90;;;;;;5006116;28;20026;-77
2023/02/19 02:18:58;;;;;;;;;;;10.30;99.90;;;;;;5006827;28;20498;-77
2023/02/19 02:21:49;;;;;;;2.67;1.87;;;10.30;99.90;;;;;;5006896;28;20000;-77
2023/02/19 02:24:33;;;;;;;2.20;1.60;;;10.20;99.90;;;;;;5003601;28;20364;-77
2023/02/19 02:27:07;;;;;;;2.93;1.77;;;10.20;99.90;;;;;;5007635;28;20050;-77
2023/02/19 02:29:51;;;;;;;3.20;1.70;;;10.10;99.90;;;;;;5010730;28;20477;-78
2023/02/19 02:32:59;;;;;;;2.97;1.93;;;10.10;99.90;;;;;;4999664;28;20022;-77
2023/02/19 02:35:30;;;;;;;3.07;1.97;;;10.10;99.90;;;;;;5010405;28;20072;-77
2023/02/19 02:38:01;;;;;;;3.03;2.10;;;10.10;99.90;;;;;;5004495;28;20043;-77
2023/02/19 02:40:27;;;;;;;2.90;1.87;;;10.10;99.90;;;;;;5004760;28;20030;-77
2023/02/19 02:42:57;;;;;;;3.07;2.20;;;10.00;99.90;;;;;;5008475;28;20018;-77
2023/02/19 02:45:33;;;;;;;2.73;1.77;;;10.00;99.90;;;;;;5009056;28;20045;-77
2023/02/19 02:48:10;;;;;;;3.00;2.00;;;9.90;99.90;;;;;;5006082;28;20018;-76
2023/02/19 02:50:58;;;;;;;3.40;2.20;;;9.80;99.90;;;;;;5017495;28;20030;-77
2023/02/19 02:56:34;;;;;;;3.30;2.63;;;9.60;99.90;;;;;;5003593;28;20033;-77
2023/02/19 02:59:05;;;;;;;4.10;2.43;;;9.30;99.90;;;;;;5005250;28;20027;-77
2023/02/19 03:07:45;;;;;;;4.20;2.47;;;8.90;99.90;;;;;;5010531;28;20089;-76
2023/02/19 03:10:16;;;;;;;4.33;2.40;;;8.80;99.90;;;;;;5004139;28;20026;-77
2023/02/19 03:21:06;;;;;;;3.87;2.47;;;8.70;99.90;;;;;;5006289;28;20115;-77
2023/02/19 03:26:20;;;;;;;4.60;2.40;;;8.60;99.90;;;;;;5008237;28;20554;-77
2023/02/19 03:31:34;;;;;;;4.97;2.83;;;8.60;99.90;;;;;;5012111;28;20434;-76
2023/02/19 03:34:04;;;;;;;4.73;2.70;;;8.60;99.90;;;;;;5008239;28;20021;-77
2023/02/19 03:36:35;;;;;;;3.67;2.27;;;8.60;99.90;;;;;;5008705;28;20388;-77
2023/02/19 03:39:03;;;;;;;3.77;2.30;;;8.60;99.90;;;;;;5002919;28;20428;-77
2023/02/19 03:41:37;;;;;;;4.47;2.60;;;8.60;99.90;;;;;;5013285;28;20462;-77
2023/02/19 03:44:12;;;;;;;3.40;2.53;;;8.50;99.90;;;;;;5007223;28;20049;-77
2023/02/19 03:46:49;;;;;;;3.97;2.50;;;8.60;99.90;;;;;;5003199;28;20142;-77
2023/02/19 03:49:44;;;;;;;3.97;2.80;;;8.60;99.90;;;;;;5006460;28;20109;-77
2023/02/19 03:52:17;;;;;;;2.90;2.22;;;8.50;99.90;;;;;;5006670;28;20050;-77
2023/02/19 03:54:49;;;;;;;6.37;2.60;;;8.60;99.90;;;;;;5007837;28;20026;-76
2023/02/19 03:57:30;;;;;;;5.63;2.80;;;8.50;99.90;;;;;;5010375;28;20030;-77
2023/02/19 04:00:08;;;;;;;5.33;2.90;;;8.40;99.90;;;;;;5003956;28;20046;-77
2023/02/19 04:02:38;;;;;;;4.23;2.60;;;8.40;99.90;;;;;;5005752;28;20083;-77
2023/02/19 04:05:10;;;;;;;5.33;2.63;;;8.30;99.90;;;;;;5002299;28;20022;-77
2023/02/19 04:07:41;;;;;;;6.60;3.47;;;8.20;99.90;;;;;;5006823;28;20109;-77
2023/02/19 04:10:08;;;;;;;5.40;3.37;;;8.20;99.90;;;;;;5006432;28;20018;-77
2023/02/19 04:12:38;;;;;;;3.43;2.57;;;8.20;99.90;;;;;;5012434;28;20022;-77
2023/02/19 04:15:10;;;;;;;3.40;2.40;;;8.20;99.90;;;;;;5007910;28;20466;-77
2023/02/19 04:17:45;;;;;;;4.20;2.80;;;8.20;99.90;;;;;;5009451;28;20387;-77
2023/02/19 04:20:12;;;;;;;5.00;2.65;;;8.20;99.90;;;;;;5011277;28;20034;-77
2023/02/19 04:22:39;;;;;;;3.40;2.53;;;8.10;99.90;;;;;;5012609;28;20353;-77
2023/02/19 04:25:06;;;;;;;4.80;2.70;;;8.10;99.90;;;;;;5010050;28;20026;-77
2023/02/19 04:27:35;;;;;;;3.90;2.90;;;8.10;99.90;;;;;;5008939;28;20109;-77
2023/02/19 04:30:01;;;;;;;4.67;2.60;;;8.10;99.90;;;;;;5006934;28;20072;-77
2023/02/19 04:32:27;;;;;;;3.97;2.73;;;8.10;99.90;;;;;;5007729;28;20053;-77
2023/02/19 04:34:52;;;;;;;6.03;2.57;;;8.00;99.90;;;;;;5014137;28;20064;-77
2023/02/19 04:37:18;;;;;;;4.03;2.33;;;8.10;99.90;;;;;;5003046;28;20037;-77
2023/02/19 04:39:43;;;;;;;9.93;2.80;;;8.10;99.90;;;;;;5000580;28;20022;-77
2023/02/19 04:42:10;;;;;;;4.37;2.37;;;8.10;99.90;;;;;;5006950;28;20105;-77
2023/02/19 04:44:35;;;;;;;5.60;2.13;;;8.10;99.90;;;;;;5004447;28;20026;-77
2023/02/19 04:47:01;;;;;;;4.37;2.43;;;8.20;99.90;;;;;;5005536;28;20110;-77
2023/02/19 04:49:26;;;;;;;2.97;2.30;;;8.10;99.90;;;;;;5003807;28;20041;-77
2023/02/19 04:51:54;;;;;;;3.77;2.40;;;8.10;99.90;;;;;;5004790;28;20038;-77
2023/02/19 04:54:20;;;;;;;2.97;2.50;;;8.10;99.90;;;;;;5004572;28;20061;-77
2023/02/19 04:56:45;;;;;;;4.03;2.47;;;8.10;99.90;;;;;;5005501;28;20475;-77
2023/02/19 04:59:11;;;;;;;4.83;2.37;;;8.20;99.90;;;;;;5005114;28;20026;-77
2023/02/19 05:01:36;;;;;;;4.00;2.27;;;8.20;99.90;;;;;;5004797;28;20030;-77
2023/02/19 05:04:03;;;;;;;2.93;2.50;;;8.20;99.90;;;;;;5011855;28;20048;-77
2023/02/19 05:06:29;;;;;;;3.47;2.50;;;8.20;99.90;;;;;;5006761;28;20044;-77
2023/02/19 05:08:54;;;;;;;3.57;2.10;;;8.20;99.90;;;;;;5008396;28;20018;-77
2023/02/19 05:11:22;;;;;;;3.63;2.30;;;8.30;99.90;;;;;;5010544;28;20104;-77
2023/02/19 05:13:48;;;;;;;3.27;2.10;;;8.30;99.90;;;;;;5004568;28;20398;-77
2023/02/19 05:16:14;;;;;;;5.40;2.60;;;8.30;99.90;;;;;;5002789;28;20030;-77
2023/02/19 05:18:41;;;;;;;3.70;2.60;;;8.30;99.90;;;;;;5007249;28;20034;-77
2023/02/19 05:21:07;;;;;;;4.03;2.73;;;8.30;99.90;;;;;;5006573;28;20026;-77
2023/02/19 05:23:32;;;;;;;3.47;2.20;;;8.20;99.90;;;;;;5008400;28;20045;-77
2023/02/19 05:25:58;;;;;;;4.17;2.30;;;8.20;99.90;;;;;;5006756;28;20026;-77
2023/02/19 05:28:27;;;;;;;3.43;2.30;;;8.30;99.90;;;;;;5005525;28;20467;-77
2023/02/19 05:30:54;;;;;;;2.97;2.20;;;8.30;99.90;;;;;;5005914;28;20409;-77
2023/02/19 05:33:22;;;;;;;3.17;2.37;;;8.40;99.90;;;;;;5003124;28;20060;-77
2023/02/19 05:35:50;;;;;;;3.03;1.90;;;8.30;99.90;;;;;;5008126;28;20540;-77
2023/02/19 05:38:17;;;;;;;3.87;2.23;;;8.30;99.90;;;;;;5006890;28;20030;-77
2023/02/19 05:40:45;;;;;;;2.97;2.40;;;8.30;99.90;;;;;;5006026;28;20101;-77
2023/02/19 05:43:12;;;;;;;3.97;2.43;;;8.40;99.90;;;;;;5002833;28;20026;-77
2023/02/19 05:45:38;;;;;;;2.40;1.80;;;8.40;99.90;;;;;;5003123;28;20132;-77
2023/02/19 05:48:05;;;;;;;4.03;2.70;;;8.50;99.90;;;;;;5007032;28;20438;-77
2023/02/19 05:50:32;;;;;;;2.53;2.30;;;8.50;99.90;;;;;;5006106;28;20054;-77
2023/02/19 05:53:02;;;;;;;4.37;2.27;;;8.40;99.90;;;;;;5004833;28;20062;-77
2023/02/19 05:55:28;;;;;;;3.57;2.60;;;8.40;99.90;;;;;;5009785;28;20030;-78
2023/02/19 05:57:54;;;;;;;5.03;2.30;;;8.40;99.90;;;;;;5002223;28;20024;-77
2023/02/19 06:00:20;;;;;;;4.07;2.73;;;8.40;99.90;;;;;;5009190;28;20132;-77
2023/02/19 06:02:46;;;;;;;3.67;2.40;;;8.40;99.90;;;;;;4999984;28;20033;-77
2023/02/19 06:05:13;;;;;;;4.63;2.57;;;8.40;99.90;;;;;;4999684;28;20021;-77
2023/02/19 06:07:39;;;;;;;2.67;2.27;;;8.40;99.90;;;;;;5004325;28;20443;-77
2023/02/19 06:10:05;;;;;;;3.53;2.23;;;8.50;99.90;;;;;;5004682;28;20014;-77
2023/02/19 06:12:31;;;;;;;4.07;2.63;;;8.50;99.90;;;;;;5002610;28;20425;-77
2023/02/19 06:14:57;;;;;;;4.00;2.60;;;8.50;99.90;;;;;;5003504;28;20042;-78
2023/02/19 06:17:23;;;;;;;4.23;2.57;;;8.50;99.90;;;;;;5007781;28;20025;-77
2023/02/19 06:19:48;;;;;;;3.73;2.67;;;8.50;99.90;;;;;;5008611;28;20128;-77
2023/02/19 06:22:15;;;;;;;3.40;2.30;;;8.50;99.90;;;;;;5009067;28;20357;-78
2023/02/19 06:24:40;;;;;;;3.37;2.40;;;8.50;99.90;;;;;;5004384;28;20038;-77
2023/02/19 06:27:07;;;;;;;3.23;2.37;;;8.50;99.90;;;;;;5008020;28;20018;-78
2023/02/19 06:29:32;;;;;;;3.20;2.20;;;8.50;99.90;;;;;;5007168;28;20080;-78
2023/02/19 06:31:59;;;;;;;3.43;2.10;;;8.60;99.90;;;;;;5008941;28;20022;-78
2023/02/19 06:34:25;;;;;;;2.90;2.33;;;8.50;99.90;;;;;;5003949;28;20030;-78
2023/02/19 06:36:51;;;;;;;3.33;2.50;;;8.60;99.90;;;;;;5009367;28;20038;-78
2023/02/19 06:39:16;;;;;;;2.50;2.17;;;8.60;99.90;;;;;;5008131;28;20030;-78
2023/02/19 06:41:42;;;;;;;4.67;2.30;;;8.60;99.90;;;;;;4999840;28;20069;-78
2023/02/19 06:44:08;;;;;;;3.17;2.20;;;8.50;99.90;;;;;;5009105;28;20034;-77
2023/02/19 06:46:34;;;;;;;3.40;2.17;;;8.50;99.90;;;;;;4999876;28;20026;-78
2023/02/19 06:49:00;;;;;;;7.10;2.37;;;8.50;99.90;;;;;;5005269;28;20045;-78
2023/02/19 06:51:28;;;;;;;3.93;2.30;;;8.60;99.90;;;;;;5004600;28;20375;-78
2023/02/19 06:53:54;;;;;;;3.33;2.27;;;8.60;99.90;;;;;;5008135;28;20033;-78
2023/02/19 06:56:23;;;;;;;3.20;2.20;;;8.60;99.90;;;;;;5003764;28;20022;-78
2023/02/19 06:58:50;;;;;;;2.87;2.13;;;8.60;99.90;;;;;;5003680;28;20442;-78
2023/02/19 07:01:15;;;;;;;2.80;2.13;;;8.60;99.90;;;;;;5003899;28;20184;-78
2023/02/19 07:03:41;;;;;;;3.90;2.27;;;8.60;99.90;;;;;;5008766;28;20116;-78
2023/02/19 07:06:07;;;;;;;3.43;2.10;;;8.70;99.90;;;;;;5010159;28;20034;-82
2023/02/19 07:08:32;;;;;;;4.03;2.17;;;8.70;99.90;;;;;;5008854;28;20037;-79
2023/02/19 07:10:58;;;;;;;2.70;2.20;;;8.80;99.90;;;;;;5005756;28;20042;-82
2023/02/19 07:13:25;;;;;;;4.17;2.70;;;8.90;99.90;;;;;;5007668;28;20025;-81
2023/02/19 07:15:56;;;;;;;2.30;1.83;;;8.90;99.90;;;;;;5009174;28;20103;-86
2023/02/19 07:18:24;;;;;;;2.90;2.23;;;8.90;99.90;;;;;;5008286;28;20026;-82
2023/02/19 07:20:49;;;;;;;3.23;2.13;;;8.90;99.90;;;;;;5007746;28;20773;-81
2023/02/19 07:23:15;;;;;;;4.23;2.53;;;8.90;99.90;;;;;;5007033;28;20042;-81
2023/02/19 07:25:40;;;;;;;3.17;2.17;;;8.90;99.90;;;;;;5008427;28;20614;-81
2023/02/19 07:28:06;;;;;;;2.80;2.07;;;8.90;99.90;;;;;;5007369;28;20439;-82
2023/02/19 07:30:32;;;;;;;3.27;2.27;;;8.90;99.90;;;;;;5007125;28;20696;-83
2023/02/19 07:32:57;;;;;;;4.70;2.67;;;8.90;99.90;;;;;;5009039;28;20081;-82
2023/02/19 07:35:23;;;;;;;3.73;2.43;;;8.90;99.90;;;;;;5007264;28;20718;-83
2023/02/19 07:37:53;;;;;;;2.80;2.37;;;8.90;99.90;;;;;;5010999;28;20034;-85
2023/02/19 07:40:19;;;;;;;4.37;2.60;;;9.00;99.90;;;;;;5009180;28;20045;-82
2023/02/19 07:42:44;;;;;;;3.80;2.57;;;9.00;99.90;;;;;;5004399;28;20030;-81
2023/02/19 07:45:10;;;;;;;3.00;2.30;;;9.00;99.90;;;;;;5004139;28;20030;-82
2023/02/19 07:47:35;;;;;;;2.87;2.00;;;9.10;99.90;;;;;;5010457;28;20048;-81
2023/02/19 07:50:01;;;;;;;2.67;2.10;;;9.10;99.90;;;;;;5014939;28;20486;-76
2023/02/19 07:52:27;;;;;;;3.90;2.33;;;9.10;99.90;;;;;;5005431;28;20533;-77
2023/02/19 07:54:52;;;;;;;2.60;2.00;;;9.20;99.90;;;;;;5008640;28;20025;-76
2023/02/19 07:57:18;;;;;;;3.00;1.93;;;9.20;99.90;;;;;;5006469;28;20022;-80
2023/02/19 07:59:44;;;;;;;3.20;2.30;;;9.20;99.90;;;;;;5003264;28;20962;-80
2023/02/19 08:04:59;;;;;;;2.77;2.10;;;9.30;99.90;;;;;;5006855;28;20096;-80
2023/02/19 08:07:33;;;;;;;2.53;2.00;;;9.30;99.90;;;;;;5009049;28;20030;-80
2023/02/19 08:15:27;;;;;;;3.70;2.10;;;9.30;99.90;;;;;;5007882;28;20386;-81
2023/02/19 08:17:52;;;;;;;2.50;2.00;;;9.30;99.90;;;;;;5009278;28;20034;-82
2023/02/19 08:20:18;;;;;;;3.23;2.37;;;9.30;99.90;;;;;;5005938;28;20026;-83
2023/02/19 08:22:44;;;;;;;3.63;2.30;;;9.30;99.90;;;;;;5010907;28;20112;-79
2023/02/19 08:25:12;;;;;;;3.40;2.30;;;9.40;99.90;;;;;;5026428;28;20033;-79
2023/02/19 08:27:37;;;;;;;4.27;2.30;;;9.40;99.90;;;;;;5005918;28;20435;-83
2023/02/19 08:30:04;;;;;;;5.00;2.10;;;9.40;99.90;;;;;;5003354;28;20112;-83
2023/02/19 08:32:30;;;;;;;3.47;1.93;;;9.40;99.90;;;;;;5027700;28;20034;-79
2023/02/19 08:34:55;;;;;;;2.67;1.90;;;9.50;99.90;;;;;;5007948;28;20032;-79
2023/02/19 08:37:21;;;;;;;2.97;1.80;;;9.50;99.90;;;;;;5001734;28;20085;-79
2023/02/19 08:39:47;;;;;;;1.90;1.40;;;9.60;99.90;;;;;;5002085;28;20070;-83
2023/02/19 08:42:12;;;;;;;1.90;1.40;;;9.70;99.90;;;;;;4998719;28;20041;-83
2023/02/19 08:44:38;;;;;;;2.23;1.70;;;9.70;99.90;;;;;;5003494;28;20509;-84
2023/02/19 08:47:04;;;;;;;3.37;1.73;;;9.60;99.90;;;;;;4995625;28;20030;-82
2023/02/19 08:49:30;;;;;;;2.30;1.60;;;9.60;99.90;;;;;;5019936;28;20042;-81
2023/02/19 08:51:55;;;;;;;2.03;1.50;;;9.70;99.90;;;;;;5003389;28;20128;-82
2023/02/19 08:54:21;;;;;;;3.80;1.80;;;9.70;99.90;;;;;;4999535;28;20034;-79
2023/02/19 08:56:46;;;;;;;3.77;1.70;;;9.60;99.90;;;;;;5002195;28;20044;-83
2023/02/19 08:59:12;;;;;;;3.13;1.70;;;9.60;99.90;;;;;;5012366;28;20042;-86
2023/02/19 09:01:37;;;;;;;1.83;1.60;;;9.50;99.90;;;;;;4999935;28;20375;-77
2023/02/19 09:04:03;;;;;;;2.93;1.40;;;9.50;99.90;;;;;;5003846;28;20467;-77
2023/02/19 09:06:29;;;;;;;2.13;1.50;;;9.40;99.90;;;;;;5005307;28;20313;-80
2023/02/19 09:08:54;;;;;;;1.63;1.33;;;9.30;99.90;;;;;;5004008;28;20064;-80
2023/02/19 09:11:20;;;;;;;1.43;1.20;;;9.30;99.90;;;;;;5003039;28;20434;-81
2023/02/19 09:13:45;;;;;;;1.27;1.00;;;9.30;99.90;;;;;;5002603;28;20076;-81
2023/02/19 09:16:11;;;;;;;1.43;1.20;;;9.20;99.90;;;;;;5003863;28;20140;-81
2023/02/19 09:18:37;;;;;;;1.80;1.27;;;9.20;99.90;;;;;;5003203;28;20046;-80
2023/02/19 09:21:04;;;;;;;1.20;1.10;;;9.30;99.90;;;;;;5001028;28;20034;-81
2023/02/19 09:23:34;;;;;;;1.67;1.10;;;9.30;99.90;;;;;;5003524;28;20041;-80
2023/02/19 09:26:05;;;;;;;3.13;1.10;;;9.30;99.90;;;;;;5003440;28;20026;-80
2023/02/19 09:28:31;;;;;;;0.77;0.60;;;9.20;99.90;;;;;;5005471;28;20055;-81
2023/02/19 09:30:56;;;;;;;1.40;0.60;;;9.10;99.90;;;;;;5006011;28;20097;-78
2023/02/19 09:33:22;;;;;;;1.60;0.77;;;9.10;99.90;;;;;;5005197;28;20687;-77
2023/02/19 09:35:47;;;;;;;0.80;0.60;;;8.90;99.90;;;;;;5005947;28;20455;-77
2023/02/19 09:38:15;;;;;;;1.13;0.80;;;8.80;99.90;;;;;;5001096;28;20165;-77
2023/02/19 09:40:41;;;;;;;0.90;0.70;;;8.80;99.90;;;;;;5004617;28;20037;-77
2023/02/19 09:43:15;;;;;;;0.70;0.70;;;8.80;99.90;;;;;;5001747;28;20033;-79
2023/02/19 09:45:41;;;;;;;1.30;0.70;;;8.70;99.90;;;;;;5006606;28;20458;-79
2023/02/19 09:48:09;;;;;;;1.07;0.63;;;8.70;99.90;;;;;;5006498;28;20022;-78
2023/02/19 09:50:42;;;;;;;2.63;0.80;;;8.70;99.90;;;;;;5000592;28;20022;-78
2023/02/19 09:53:39;;;;;;;0.97;0.70;;;8.80;99.90;;;;;;5005868;28;20486;-78
2023/02/19 09:56:06;;;;;;;1.37;0.87;;;8.90;99.90;;;;;;5009090;28;20064;-78
2023/02/19 09:58:35;;;;;;;1.23;0.80;;;8.90;99.90;;;;;;5005706;28;20471;-79
2023/02/19 10:01:04;;;;;;;3.87;1.00;;;9.10;99.90;;;;;;5005173;28;20026;-79
2023/02/19 10:03:38;;;;;;;0.80;0.80;;;9.30;99.90;;;;;;4998632;28;20125;-79
2023/02/19 10:06:24;;;;;;;1.13;0.80;;;9.60;99.90;;;;;;5001258;28;20046;-79
2023/02/19 10:08:53;;;;;;;0.87;0.80;;;9.90;99.90;;;;;;5005071;28;20367;-78
2023/02/19 10:11:18;;;;;;;1.87;0.90;;;10.30;99.90;;;;;;5007568;28;20459;-79
2023/02/19 10:14:11;;;;;;;0.70;0.70;;;10.50;99.90;;;;;;5004089;28;20030;-83
2023/02/19 10:16:41;;;;;;;0.70;0.70;;;10.80;99.90;;;;;;5005944;28;20014;-78
2023/02/19 10:19:14;;;;;;;2.50;0.60;;;11.00;99.90;;;;;;5001800;28;20030;-76
2023/02/19 10:21:41;;;;;;;0.60;0.60;;;11.00;99.90;;;;;;5001691;28;20030;-81
2023/02/19 10:24:11;;;;;;;1.47;0.70;;;11.00;99.90;;;;;;5003279;28;20025;-77
2023/02/19 10:26:38;;;;;;;1.40;0.80;;;11.00;99.90;;;;;;5003773;28;20363;-79
2023/02/19 10:29:04;;;;;;;1.33;0.80;;;11.10;99.90;;;;;;4997156;28;20038;-79
2023/02/19 10:31:31;;;;;;;1.70;0.73;;;11.20;99.90;;;;;;4999839;28;20033;-79
2023/02/19 10:34:02;;;;;;;1.40;0.67;;;11.40;99.90;;;;;;4998395;28;20040;-77
2023/02/19 10:36:32;;;;;;;1.33;0.70;;;11.60;99.90;;;;;;5000522;28;20072;-82
2023/02/19 10:39:13;;;;;;;3.30;1.00;;;11.70;99.90;;;;;;4998233;28;20038;-79
2023/02/19 10:41:40;;;;;;;3.20;2.00;;;11.80;99.90;;;;;;4998690;28;20030;-77
2023/02/19 10:44:14;;;;;;;1.30;0.60;;;11.80;99.90;;;;;;4997966;28;20080;-82
2023/02/19 10:46:46;;;;;;;1.90;1.00;;;11.70;99.90;;;;;;4999694;28;20030;-77
2023/02/19 10:49:29;;;;;;;0.77;0.70;;;11.60;99.90;;;;;;5004068;28;20029;-76
2023/02/19 10:51:56;;;;;;;1.00;0.60;;;11.70;99.90;;;;;;4997689;28;20069;-82
2023/02/19 10:54:35;;;;;;;1.93;0.80;;;11.80;99.90;;;;;;4997062;28;20041;-81
2023/02/19 10:57:31;;;;;;;2.13;0.90;;;11.90;99.90;;;;;;4998334;28;20494;-82
2023/02/19 11:00:13;;;;;;;0.70;0.60;;;12.10;99.90;;;;;;4992810;28;20041;-79
2023/02/19 11:02:39;;;;;;;1.43;0.60;;;12.00;99.90;;;;;;5001367;28;20034;-76
2023/02/19 11:05:11;;;;;;;0.60;0.50;;;11.90;99.90;;;;;;5001664;28;20136;-76
2023/02/19 11:07:41;;;;;;;0.83;0.60;;;11.80;99.90;;;;;;4999676;28;20030;-76
2023/02/19 11:10:29;;;;;;;0.60;0.50;;;11.70;99.90;;;;;;5005683;28;20029;-77
2023/02/19 11:13:01;;;;;;;1.57;0.80;;;11.50;99.90;;;;;;5001690;28;20037;-76
2023/02/19 11:15:28;;;;;;;1.55;0.50;;;11.40;99.90;;;;;;5002489;28;20030;-76
2023/02/19 11:17:59;;;;;;;0.53;0.50;;;11.40;99.90;;;;;;5003513;28;21353;-76
2023/02/19 11:20:25;;;;;;;0.50;0.40;;;11.30;99.90;;;;;;5001838;28;20156;-77
2023/02/19 11:22:56;;;;;;;1.50;0.40;;;11.20;99.90;;;;;;5001668;28;20034;-79
2023/02/19 11:25:24;;;;;;;0.50;0.50;;;11.30;99.90;;;;;;5002190;28;20053;-77
2023/02/19 11:28:06;;;;;;;1.03;0.50;;;11.40;99.90;;;;;;5005091;28;20019;-77
2023/02/19 11:30:45;;;;;;;2.07;0.97;;;11.60;99.90;;;;;;5002604;28;20019;-77
2023/02/19 11:33:18;;;;;;;0.83;0.60;;;11.60;99.90;;;;;;5004003;28;20036;-77
2023/02/19 11:35:45;;;;;;;0.50;0.50;;;11.40;99.90;;;;;;5003755;28;20022;-77
2023/02/19 11:38:13;;;;;;;2.60;0.77;;;11.10;99.90;;;;;;5005669;28;20055;-76
2023/02/19 11:41:00;;;;;;;0.60;0.60;;;10.80;99.90;;;;;;5002869;28;20061;-76
2023/02/19 11:43:26;;;;;;;0.83;0.50;;;10.50;99.90;;;;;;5001269;28;20093;-76
2023/02/19 11:46:08;;;;;;;0.77;0.60;;;10.20;99.90;;;;;;4998376;28;20121;-76
2023/02/19 11:49:01;;;;;;;1.90;0.97;;;10.10;99.90;;;;;;5002539;28;20093;-76
2023/02/19 11:51:54;;;;;;;0.50;0.50;;;10.20;99.90;;;;;;5001711;28;20026;-75
2023/02/19 11:54:38;;;;;;;1.87;0.77;;;10.20;99.90;;;;;;5000794;28;20357;-76
2023/02/19 11:57:29;;;;;;;0.93;0.80;;;10.10;99.90;;;;;;5006425;28;20208;-76
2023/02/19 12:00:13;;;;;;;1.23;0.50;;;10.10;99.90;;;;;;5007694;28;20022;-76
2023/02/19 12:03:08;;;;;;;1.90;0.70;;;10.20;99.90;;;;;;5019050;28;20042;-76
2023/02/19 12:05:41;;;;;;;1.10;0.80;;;10.20;99.90;;;;;;5004273;28;20205;-76
2023/02/19 12:08:46;;;;;;;0.70;0.70;;;10.30;99.90;;;;;;5022807;28;20390;-76
2023/02/19 12:11:36;;;;;;;1.33;0.90;;;10.40;99.90;;;;;;4999410;28;21390;-76
2023/02/19 12:14:21;;;;;;;1.20;0.70;;;10.50;99.90;;;;;;5003704;28;20037;-76
2023/02/19 12:17:00;;;;;;;1.60;0.90;;;10.60;99.90;;;;;;5008794;28;20072;-76
2023/02/19 12:19:58;;;;;;;0.90;0.70;;;10.70;99.90;;;;;;5008472;28;20028;-76
2023/02/19 12:22:23;;;;;;;0.87;0.50;;;10.70;99.90;;;;;;5006687;28;20022;-80
2023/02/19 12:25:22;;;;;;;0.90;0.80;;;10.70;99.90;;;;;;5000207;28;20034;-76
2023/02/19 12:28:00;;;;;;;1.20;0.80;;;10.80;99.90;;;;;;5001171;28;20057;-82
2023/02/19 12:30:25;;;;;;;1.70;0.67;;;10.90;99.90;;;;;;5003596;28;20022;-76
2023/02/19 12:33:33;;;;;;;0.83;0.60;;;10.80;99.90;;;;;;5003767;28;20367;-76
2023/02/19 12:35:59;;;;;;;1.17;0.90;;;10.50;99.90;;;;;;5003376;28;20045;-76
2023/02/19 12:38:27;;;;;;;1.07;0.80;;;10.20;99.90;;;;;;5003473;28;20759;-76
2023/02/19 12:41:11;;;;;;;4.07;1.20;;;10.00;99.90;;;;;;5018960;28;20070;-75
2023/02/19 12:43:43;;;;;;;1.03;0.70;;;9.80;99.90;;;;;;5006013;28;20056;-75
2023/02/19 12:46:18;;;;;;;2.67;0.90;;;9.70;99.90;;;;;;5008227;28;20257;-76
2023/02/19 12:49:02;;;;;;;3.70;0.80;;;9.70;99.90;;;;;;5002031;28;20098;-76
2023/02/19 12:51:44;;;;;;;1.00;0.70;;;9.60;99.90;;;;;;5002968;28;20018;-76
2023/02/19 12:54:37;;;;;;;2.07;0.83;;;9.70;99.90;;;;;;5004720;28;20040;-76
2023/02/19 12:57:14;;;;;;;1.40;1.00;;;9.70;99.90;;;;;;5007718;28;20365;-76
2023/02/19 12:59:58;;;;;;;1.70;1.00;;;9.70;99.90;;;;;;5005164;28;20302;-76
2023/02/19 13:02:36;;;;;;;1.17;0.70;;;9.80;99.90;;;;;;5004898;28;20021;-77
2023/02/19 13:05:14;;;;;;;1.30;1.00;;;9.80;99.90;;;;;;4998423;28;20073;-76
2023/02/19 13:08:17;;;;;;;1.73;0.80;;;9.90;99.90;;;;;;5000342;28;20419;-77
2023/02/19 13:10:53;;;;;;;1.30;0.80;;;9.90;99.90;;;;;;5004918;28;20045;-76
2023/02/19 13:13:27;;;;;;;1.93;0.80;;;10.00;99.90;;;;;;5005121;28;20014;-76
2023/02/19 13:15:58;;;;;;;1.93;0.77;;;10.10;99.90;;;;;;5005100;28;20108;-76
2023/02/19 13:18:55;;;;;;;5.37;1.00;;;10.20;99.90;;;;;;5007000;28;20026;-77
2023/02/19 13:24:20;;;;;;;2.27;0.90;;;10.20;99.90;;;;;;5002977;28;20033;-77
2023/02/19 13:27:00;;;;;;;7.80;1.67;;;10.10;99.90;;;;;;5006732;28;20014;-78
2023/02/19 13:30:03;;;;;;;1.23;0.80;;;10.20;99.90;;;;;;5002618;28;20021;-77
2023/02/19 13:32:50;;;;;;;3.30;0.80;;;10.30;99.90;;;;;;5005080;28;20018;-77
2023/02/19 13:35:26;;;;;;;3.07;0.90;;;10.20;99.90;;;;;;5002154;28;20101;-77
2023/02/19 13:37:54;;;;;;;0.77;0.70;;;10.30;99.90;;;;;;5003933;28;20029;-77
2023/02/19 13:40:38;;;;;;;0.77;0.70;;;10.20;99.90;;;;;;5004785;28;20475;-76
2023/02/19 13:43:07;;;;;;;1.27;0.77;;;10.30;99.90;;;;;;5006064;28;20018;-76
2023/02/19 13:45:41;;;;;;;0.90;0.70;;;10.20;99.90;;;;;;5008881;28;20041;-76
2023/02/19 13:48:27;;;;;;;1.40;0.90;;;10.10;99.90;;;;;;5002090;28;20014;-76